Time;durP1;ratioP1;P1;durP2;ratioP2;P2;SDS_P1;SDS_P2;PMS_P1;PMS_P2;Temp;Humidity;BMP_temperature;BMP_pressure;BME280_temperature;BME280_humidity;BME280_pressure;Samples;Min_cycle;Max_cycle;Signal;HPM_P1;HPM_P2
2021/09/27 00:00:51;;;;;;;8.10;6.50;;;;;;;18.45;70.97;100501.97;5133102;27;20481;-62
2021/09/27 00:03:17;;;;;;;8.05;6.82;;;;;;;18.47;71.38;100508.03;5132787;27;20145;-62
2021/09/27 00:05:42;;;;;;;7.10;6.25;;;;;;;18.42;71.53;100501.47;5132726;27;20110;-62
2021/09/27 00:08:08;;;;;;;10.93;6.88;;;;;;;18.41;71.86;100505.22;5131432;27;20023;-62
2021/09/27 00:10:42;;;;;;;8.85;6.57;;;;;;;18.39;71.72;100507.25;5131364;27;20362;-63
2021/09/27 00:13:09;;;;;;;9.82;6.88;;;;;;;18.33;72.42;100502.50;5132501;27;20046;-62
2021/09/27 00:15:41;;;;;;;11.38;8.13;;;;;;;18.25;72.64;100505.28;5132650;27;20046;-63
2021/09/27 00:18:07;;;;;;;12.02;7.65;;;;;;;18.17;72.98;100500.75;5132577;27;20031;-63
2021/09/27 00:20:35;;;;;;;11.48;7.45;;;;;;;18.14;73.76;100503.81;5132461;27;20123;-62
2021/09/27 00:23:01;;;;;;;10.38;7.30;;;;;;;18.05;74.32;100492.16;5132201;27;20027;-62
2021/09/27 00:25:27;;;;;;;11.15;7.60;;;;;;;17.99;73.92;100487.44;5132507;27;20031;-62
2021/09/27 00:27:53;;;;;;;8.43;7.60;;;;;;;17.95;74.08;100486.13;5132289;27;20050;-62
2021/09/27 00:30:20;;;;;;;13.60;9.38;;;;;;;17.92;74.57;100491.91;5132669;27;20098;-62
2021/09/27 00:32:46;;;;;;;10.52;8.38;;;;;;;17.88;74.39;100492.44;5132391;27;20084;-62
2021/09/27 00:35:14;;;;;;;12.63;8.60;;;;;;;17.85;74.33;100484.63;5132104;27;20038;-63
2021/09/27 00:37:40;;;;;;;12.13;8.10;;;;;;;17.82;74.48;100476.84;5131951;27;20132;-62
2021/09/27 00:40:08;;;;;;;11.07;8.43;;;;;;;17.78;74.42;100475.53;5132158;27;20098;-62
2021/09/27 00:42:34;;;;;;;12.77;8.73;;;;;;;17.77;74.55;100481.97;5131730;27;20035;-62
2021/09/27 00:45:00;;;;;;;12.68;8.18;;;;;;;17.70;74.65;100476.41;5132226;27;20030;-62
2021/09/27 00:47:25;;;;;;;14.57;8.48;;;;;;;17.72;75.13;100484.34;5132072;27;20142;-62
2021/09/27 00:49:51;;;;;;;13.10;9.05;;;;;;;17.69;75.01;100487.41;5131875;27;20035;-62
2021/09/27 00:52:18;;;;;;;13.23;8.60;;;;;;;17.64;75.29;100485.22;5131922;27;20027;-62
2021/09/27 00:54:45;;;;;;;13.02;8.52;;;;;;;17.61;75.38;100484.75;5131553;27;20334;-62
2021/09/27 00:57:20;;;;;;;14.90;9.52;;;;;;;17.58;75.69;100485.09;5130520;27;20019;-62
2021/09/27 00:59:47;;;;;;;;;;;;;;;17.53;75.57;100487.47;5132495;27;20038;-63
2021/09/27 01:02:12;;;;;;;9.93;8.50;;;;;;;17.52;76.04;100483.09;5131097;27;20374;-63
2021/09/27 01:04:39;;;;;;;10.73;8.10;;;;;;;17.48;76.38;100489.88;5131261;27;20055;-62
2021/09/27 01:07:39;;;;;;;11.07;8.55;;;;;;;17.43;76.45;100489.56;5131582;27;20473;-62
2021/09/27 01:10:29;;;;;;;13.98;8.68;;;;;;;17.37;77.00;100482.06;5131569;27;20027;-62
2021/09/27 01:13:09;;;;;;;13.88;9.88;;;;;;;17.33;77.06;100472.59;5129871;27;20026;-63
2021/09/27 01:16:14;;;;;;;10.48;8.25;;;;;;;17.26;77.51;100472.47;5130086;27;20511;-62
2021/09/27 01:19:06;;;;;;;10.43;8.77;;;;;;;17.25;77.79;100468.03;5130166;27;20031;-62
2021/09/27 01:22:08;;;;;;;13.73;8.95;;;;;;;17.21;78.04;100466.72;5131268;27;20045;-62
2021/09/27 01:25:15;;;;;;;10.98;8.75;;;;;;;17.17;78.27;100459.94;5131281;27;20023;-62
2021/09/27 01:28:08;;;;;;;12.93;8.52;;;;;;;17.13;78.37;100455.03;5101280;27;20039;-62
2021/09/27 01:31:11;;;;;;;9.65;8.38;;;;;;;17.09;78.43;100451.81;5131517;27;20373;-62
2021/09/27 01:33:43;;;;;;;12.00;8.57;;;;;;;17.04;78.70;100458.78;5123197;27;20049;-63
2021/09/27 01:36:17;;;;;;;9.40;8.40;;;;;;;17.01;78.59;100453.72;5131117;27;20027;-62
2021/09/27 01:38:49;;;;;;;;;;;;;;;16.95;79.33;100455.25;5130232;27;20023;-62
2021/09/27 01:41:37;;;;;;;11.00;8.63;;;;;;;16.92;79.60;100454.75;5131113;27;19911;-62
2021/09/27 01:44:35;;;;;;;11.82;8.38;;;;;;;16.88;79.80;100450.69;5130933;27;20030;-62
2021/09/27 01:47:24;;;;;;;18.38;9.10;;;;;;;16.83;80.02;100451.19;5131154;27;20080;-62
2021/09/27 01:50:06;;;;;;;10.98;8.77;;;;;;;16.77;80.13;100445.63;5131091;27;20430;-62
2021/09/27 01:52:39;;;;;;;13.35;8.73;;;;;;;16.77;80.93;100448.34;5130903;27;20042;-62
2021/09/27 01:55:22;;;;;;;9.75;8.30;;;;;;;16.75;80.39;100453.06;5130984;27;20031;-63
2021/09/27 01:57:59;;;;;;;11.70;8.68;;;;;;;16.75;80.87;100451.22;5131384;27;20023;-63
2021/09/27 02:00:42;;;;;;;11.18;9.30;;;;;;;16.71;81.29;100446.31;5130984;27;20027;-62
2021/09/27 02:03:27;;;;;;;10.35;8.32;;;;;;;16.69;81.43;100451.03;5130355;27;20031;-62
2021/09/27 02:06:13;;;;;;;10.30;8.20;;;;;;;16.68;81.55;100463.75;5129491;28;20054;-62
2021/09/27 02:09:08;;;;;;;13.88;8.85;;;;;;;16.62;81.86;100461.72;5130917;27;20475;-62
2021/09/27 02:11:38;;;;;;;11.02;8.50;;;;;;;16.58;82.18;100463.09;5130282;28;20039;-63
2021/09/27 02:14:28;;;;;;;13.07;8.27;;;;;;;16.56;82.34;100469.66;5130734;27;20056;-62
2021/09/27 02:17:15;;;;;;;9.10;8.07;;;;;;;16.53;82.54;100475.41;5134835;27;20130;-62
2021/09/27 02:19:44;;;;;;;10.32;8.00;;;;;;;16.51;82.76;100472.88;5133443;27;20045;-62
2021/09/27 02:22:23;;;;;;;12.50;8.70;;;;;;;16.48;82.80;100472.38;5134957;27;20035;-62
2021/09/27 02:25:02;;;;;;;10.88;8.38;;;;;;;16.47;83.07;100468.00;5134898;27;20474;-62
2021/09/27 02:27:28;;;;;;;11.50;8.60;;;;;;;16.40;83.23;100464.22;5133349;27;20031;-62
2021/09/27 02:29:53;;;;;;;9.13;7.60;;;;;;;16.39;83.71;100467.94;5133173;27;20126;-62
2021/09/27 02:32:51;;;;;;;11.32;8.52;;;;;;;16.40;83.68;100481.31;5134754;27;20019;-62
2021/09/27 02:35:43;;;;;;;12.13;8.68;;;;;;;16.37;84.12;100476.22;5134221;27;20087;-62
2021/09/27 02:38:22;;;;;;;10.75;8.30;;;;;;;16.33;84.52;100474.88;5133129;27;20477;-62
2021/09/27 02:41:01;;;;;;;13.32;9.18;;;;;;;16.32;84.85;100483.16;5134530;27;20053;-62
2021/09/27 02:43:27;;;;;;;10.63;7.53;;;;;;;16.31;84.94;100481.47;5134387;27;20015;-62
2021/09/27 02:45:54;;;;;;;9.27;8.30;;;;;;;16.30;84.95;100477.06;5134369;27;20030;-62
2021/09/27 02:48:32;;;;;;;11.20;8.40;;;;;;;16.31;85.08;100482.31;5134217;27;20031;-62
2021/09/27 02:50:58;;;;;;;10.43;7.75;;;;;;;16.29;85.03;100481.66;5134141;27;20019;-62
2021/09/27 02:53:25;;;;;;;11.48;8.13;;;;;;;16.28;85.21;100476.41;5132607;27;20011;-62
2021/09/27 02:56:14;;;;;;;12.45;8.55;;;;;;;16.29;85.72;100481.66;5134001;27;20106;-62
2021/09/27 02:58:44;;;;;;;11.25;8.80;;;;;;;16.27;85.50;100482.81;5132701;27;20050;-62
2021/09/27 03:01:16;;;;;;;9.45;8.30;;;;;;;16.27;85.44;100477.41;5134035;27;20022;-62
2021/09/27 03:03:58;;;;;;;9.98;8.02;;;;;;;16.23;85.74;100476.91;5133779;27;20467;-62
2021/09/27 03:06:53;;;;;;;11.65;8.82;;;;;;;16.24;85.68;100492.13;5132627;27;20033;-62
2021/09/27 03:09:43;;;;;;;12.15;9.13;;;;;;;16.24;85.93;100491.25;5106097;27;20077;-63
2021/09/27 03:12:26;;;;;;;11.25;9.13;;;;;;;16.24;86.42;100485.84;5132451;27;20027;-62
2021/09/27 03:15:09;;;;;;;14.13;8.73;;;;;;;16.24;86.12;100480.44;5132512;27;20124;-62
2021/09/27 03:17:56;;;;;;;9.02;7.90;;;;;;;16.25;86.11;100487.56;5133571;27;20123;-62
2021/09/27 03:20:26;;;;;;;11.40;8.65;;;;;;;16.25;86.22;100487.56;5133759;27;20087;-62
2021/09/27 03:23:17;;;;;;;10.45;8.45;;;;;;;16.25;85.90;100482.97;5133643;27;20027;-62
2021/09/27 03:25:50;;;;;;;10.10;8.40;;;;;;;16.26;86.07;100489.25;5133097;27;20031;-62
2021/09/27 03:28:24;;;;;;;18.40;8.52;;;;;;;16.27;86.29;100485.50;5133864;27;20039;-62
2021/09/27 03:31:24;;;;;;;14.80;9.27;;;;;;;16.26;86.48;100489.25;5131997;27;20492;-62
2021/09/27 03:34:21;;;;;;;10.35;8.82;;;;;;;16.26;86.49;100481.97;5133271;27;20466;-62
2021/09/27 03:37:01;;;;;;;10.23;8.98;;;;;;;16.26;86.41;100479.28;5133548;27;20034;-62
2021/09/27 03:39:33;;;;;;;12.38;8.73;;;;;;;16.27;86.68;100477.41;5120364;27;20495;-62
2021/09/27 03:42:10;;;;;;;12.35;9.55;;;;;;;16.27;86.61;100469.28;5110931;28;20023;-62
2021/09/27 03:44:55;;;;;;;11.13;8.90;;;;;;;16.25;86.47;100463.19;5111034;28;20019;-62
2021/09/27 03:47:33;;;;;;;15.05;9.73;;;;;;;16.24;86.70;100458.78;5111315;28;20090;-62
2021/09/27 03:50:11;;;;;;;12.45;9.85;;;;;;;16.29;86.10;100459.13;5111614;27;20032;-62
2021/09/27 03:52:44;;;;;;;13.10;9.32;;;;;;;16.26;86.57;100463.03;5111724;28;20023;-62
2021/09/27 03:55:36;;;;;;;13.65;9.25;;;;;;;16.26;86.52;100454.06;5109841;28;20035;-62
2021/09/27 03:58:07;;;;;;;11.13;8.82;;;;;;;16.24;86.67;100462.34;5109025;28;20103;-61
2021/09/27 04:00:41;;;;;;;9.98;8.70;;;;;;;16.23;86.65;100460.66;5111178;28;20534;-62
2021/09/27 04:03:16;;;;;;;11.07;8.85;;;;;;;16.23;86.95;100467.91;5111246;28;20371;-62
2021/09/27 04:05:57;;;;;;;13.02;8.98;;;;;;;16.22;86.90;100460.81;5111228;28;20043;-62
2021/09/27 04:08:37;;;;;;;10.00;8.68;;;;;;;16.23;87.51;100457.09;5109061;28;20373;-63
2021/09/27 04:11:39;;;;;;;13.50;8.50;;;;;;;16.23;87.62;100467.91;5108990;28;20478;-62
2021/09/27 04:14:22;;;;;;;19.60;9.60;;;;;;;16.23;87.37;100470.63;5111903;28;20050;-62
2021/09/27 04:17:04;;;;;;;12.02;8.52;;;;;;;16.19;87.52;100472.84;5112389;28;20497;-62
2021/09/27 04:19:42;;;;;;;10.27;7.95;;;;;;;16.21;87.97;100472.63;5112272;28;20019;-62
2021/09/27 04:22:10;;;;;;;14.90;9.20;;;;;;;16.21;88.12;100478.91;5111353;28;20367;-62
2021/09/27 04:24:38;;;;;;;11.15;8.75;;;;;;;16.22;87.83;100487.88;5111087;28;20032;-62
2021/09/27 04:27:11;;;;;;;11.73;8.52;;;;;;;16.21;88.22;100495.16;5111195;28;20482;-62
2021/09/27 04:29:58;;;;;;;13.40;9.88;;;;;;;16.19;88.29;100491.78;5111508;28;20111;-62
2021/09/27 04:32:47;;;;;;;14.85;9.88;;;;;;;16.20;88.47;100503.44;5111699;28;20428;-61
2021/09/27 04:35:21;;;;;;;13.48;9.75;;;;;;;16.19;88.60;100491.78;5105127;28;20051;-61
2021/09/27 04:37:47;;;;;;;;;;;;;;;16.18;88.96;100490.06;5108998;28;20459;-62
2021/09/27 04:40:17;;;;;;;13.70;8.55;;;;;;;16.16;88.79;100493.97;5110393;28;20278;-62
2021/09/27 04:42:55;;;;;;;11.02;8.70;;;;;;;16.25;88.01;100503.81;5108512;28;20043;-61
2021/09/27 04:45:37;;;;;;;12.65;9.35;;;;;;;16.20;88.79;100495.31;5110130;28;20030;-62
2021/09/27 04:48:13;;;;;;;11.70;8.90;;;;;;;16.19;89.74;100485.50;5110380;28;20074;-62
2021/09/27 05:21:14;;;;;;;13.63;9.57;;;;;;;16.56;90.85;100461.53;6164851;22;1381810;-67
2021/09/27 05:23:55;;;;;;;16.70;9.40;;;;;;;16.52;90.97;100468.31;6220544;23;20020;-68
2021/09/27 05:26:55;;;;;;;11.40;9.00;;;;;;;16.51;91.08;100472.06;6220720;23;20008;-68
2021/09/27 05:29:26;;;;;;;12.60;9.43;;;;;;;16.51;90.79;100477.47;6220875;23;20086;-67
2021/09/27 05:32:10;;;;;;;11.63;9.50;;;;;;;16.49;90.70;100482.19;6220103;23;20008;-68
2021/09/27 05:35:04;;;;;;;13.65;10.13;;;;;;;16.49;91.04;100474.06;6220397;23;20004;-67
2021/09/27 05:38:06;;;;;;;15.05;10.43;;;;;;;16.42;91.14;100468.47;6204367;23;20310;-68
2021/09/27 05:40:35;;;;;;;13.60;11.18;;;;;;;16.48;91.01;100484.03;6193665;23;20036;-67
2021/09/27 05:43:17;;;;;;;14.52;10.90;;;;;;;16.45;91.39;100475.44;6220657;23;20024;-69
2021/09/27 05:45:55;;;;;;;17.70;10.25;;;;;;;16.52;91.36;100485.41;6220468;23;20004;-67
2021/09/27 05:48:53;;;;;;;13.98;9.95;;;;;;;16.52;91.34;100485.41;6220492;23;20393;-68
2021/09/27 05:51:25;;;;;;;15.57;10.25;;;;;;;16.56;91.03;100491.31;6220489;23;20012;-66
2021/09/27 05:54:02;;;;;;;13.98;10.02;;;;;;;16.58;91.18;100486.59;6220292;23;20001;-67
2021/09/27 05:56:46;;;;;;;10.55;9.23;;;;;;;16.61;91.00;100486.25;6220539;23;20039;-67
2021/09/27 05:59:19;;;;;;;15.23;10.10;;;;;;;16.65;90.71;100484.91;6220414;23;20009;-68
2021/09/27 06:01:50;;;;;;;14.32;10.23;;;;;;;16.66;90.35;100487.44;6193536;23;20369;-67
2021/09/27 06:04:35;;;;;;;12.85;9.75;;;;;;;16.68;90.38;100490.84;6221132;23;20019;-67
2021/09/27 06:07:07;;;;;;;11.00;9.35;;;;;;;16.71;90.44;100492.34;6221400;23;20000;-68
2021/09/27 06:09:44;;;;;;;13.13;9.75;;;;;;;16.73;89.90;100499.28;6221213;23;20001;-67
2021/09/27 06:12:23;;;;;;;14.35;9.95;;;;;;;16.76;90.06;100496.25;6221436;23;20000;-67
2021/09/27 06:14:52;;;;;;;13.13;9.95;;;;;;;16.71;90.15;100490.50;6194544;23;20001;-68
2021/09/27 06:17:29;;;;;;;12.13;9.45;;;;;;;16.82;90.13;100498.28;6221541;23;20031;-67
2021/09/27 06:20:20;;;;;;;10.55;9.13;;;;;;;16.84;90.10;100498.97;6219493;23;20024;-68
2021/09/27 06:23:03;;;;;;;14.90;9.80;;;;;;;16.91;89.54;100491.00;6214475;23;20000;-68
2021/09/27 06:25:38;;;;;;;15.73;10.63;;;;;;;16.86;89.49;100490.66;6214645;23;20083;-68
2021/09/27 06:28:09;;;;;;;10.32;9.20;;;;;;;16.94;89.74;100494.22;6214233;23;20000;-68
2021/09/27 06:30:49;;;;;;;13.93;9.30;;;;;;;16.98;89.81;100502.81;6187851;23;20023;-67
2021/09/27 06:33:29;;;;;;;10.55;8.88;;;;;;;17.04;90.09;100507.56;6214751;23;20066;-68
2021/09/27 06:35:58;;;;;;;16.63;9.77;;;;;;;17.00;90.26;100512.50;6187830;23;20099;-67
2021/09/27 06:38:29;;;;;;;15.77;10.07;;;;;;;17.06;90.90;100522.63;6214469;23;20010;-67
2021/09/27 06:40:56;;;;;;;14.30;10.68;;;;;;;17.09;91.95;100526.88;6214410;23;20004;-70
2021/09/27 06:43:24;;;;;;;10.93;8.85;;;;;;;17.21;92.64;100536.34;6188424;23;20099;-68
2021/09/27 06:45:50;;;;;;;12.60;9.43;;;;;;;17.25;92.78;100548.56;6214266;23;20005;-67
2021/09/27 06:48:17;;;;;;;15.43;10.02;;;;;;;17.25;92.92;100556.69;6214673;23;20005;-67
2021/09/27 06:50:43;;;;;;;13.07;10.10;;;;;;;17.36;93.43;100569.88;6187828;23;20016;-68
2021/09/27 06:53:08;;;;;;;12.70;9.20;;;;;;;17.40;93.80;100563.94;6213286;23;20005;-68
2021/09/27 06:55:34;;;;;;;15.98;10.75;;;;;;;17.35;94.00;100555.47;6186598;23;20009;-68
2021/09/27 06:57:59;;;;;;;17.10;10.55;;;;;;;17.44;94.25;100575.31;6213233;23;20011;-67
2021/09/27 07:00:25;;;;;;;16.30;11.48;;;;;;;17.45;94.03;100566.16;6185648;23;20091;-67
2021/09/27 07:02:50;;;;;;;27.13;16.80;;;;;;;17.50;95.32;100566.47;6187314;23;20395;-67
2021/09/27 07:05:16;;;;;;;22.00;15.15;;;;;;;17.49;96.21;100565.66;6214227;23;20011;-68
2021/09/27 07:07:42;;;;;;;14.55;12.35;;;;;;;17.56;95.72;100576.66;6213636;23;20396;-66
2021/09/27 07:10:11;;;;;;;13.77;10.65;;;;;;;17.55;95.51;100572.25;6208527;23;20379;-66
2021/09/27 07:12:37;;;;;;;14.07;11.10;;;;;;;17.59;95.74;100570.88;6186453;23;20008;-67
2021/09/27 07:15:04;;;;;;;13.98;10.90;;;;;;;17.63;95.93;100566.78;6213450;23;20016;-67
2021/09/27 07:17:29;;;;;;;11.07;9.95;;;;;;;17.67;96.07;100573.59;6213407;23;20413;-66
2021/09/27 07:19:55;;;;;;;16.27;11.85;;;;;;;17.67;96.21;100565.44;6212888;23;20030;-66
2021/09/27 07:22:20;;;;;;;20.38;15.32;;;;;;;17.66;96.62;100558.31;6187140;23;20009;-67
2021/09/27 07:24:46;;;;;;;30.13;17.85;;;;;;;17.70;96.86;100556.94;6213054;23;20004;-67
2021/09/27 07:27:11;;;;;;;22.02;15.75;;;;;;;17.76;97.00;100556.22;6186641;23;20066;-65
2021/09/27 07:29:37;;;;;;;24.00;14.93;;;;;;;17.77;96.10;100552.53;6186610;23;19997;-67
2021/09/27 07:32:03;;;;;;;16.10;12.27;;;;;;;17.74;95.80;100539.31;6212780;23;20016;-65
2021/09/27 07:34:28;;;;;;;14.45;11.48;;;;;;;17.89;95.33;100551.94;6213324;23;20433;-67
2021/09/27 07:36:54;;;;;;;14.15;10.50;;;;;;;17.93;95.39;100549.75;6212861;23;20062;-67
2021/09/27 07:39:19;;;;;;;12.35;10.57;;;;;;;17.99;95.81;100543.59;6212793;23;20174;-67
2021/09/27 07:41:46;;;;;;;15.30;11.63;;;;;;;18.05;95.98;100542.88;6186462;23;20000;-67
2021/09/27 07:44:12;;;;;;;13.48;11.52;;;;;;;18.13;95.93;100542.00;6186616;23;20000;-66
2021/09/27 07:46:37;;;;;;;12.48;10.15;;;;;;;18.18;95.02;100554.03;6213258;23;20007;-66
2021/09/27 07:49:03;;;;;;;14.90;11.77;;;;;;;18.24;93.97;100552.44;6213085;23;20095;-66
2021/09/27 07:51:29;;;;;;;14.50;11.43;;;;;;;18.20;93.16;100540.25;6212818;23;20016;-67
2021/09/27 07:53:55;;;;;;;15.75;11.93;;;;;;;18.27;92.17;100555.69;6212894;23;20015;-67
2021/09/27 07:56:20;;;;;;;23.58;14.45;;;;;;;18.28;91.58;100557.34;6186133;23;20317;-67
2021/09/27 07:58:46;;;;;;;26.13;16.02;;;;;;;18.35;91.60;100558.34;6212956;23;20448;-66
2021/09/27 08:01:13;;;;;;;24.40;16.10;;;;;;;18.32;91.79;100557.84;6212882;23;20004;-66
2021/09/27 08:03:40;;;;;;;27.55;16.58;;;;;;;18.25;92.35;100551.44;6186297;23;20034;-66
2021/09/27 08:06:06;;;;;;;23.80;15.95;;;;;;;18.30;92.50;100563.47;6212725;23;20009;-65
2021/09/27 08:08:31;;;;;;;19.38;13.85;;;;;;;18.27;92.34;100565.69;6212836;23;19996;-67
2021/09/27 08:10:57;;;;;;;18.98;12.88;;;;;;;18.28;92.25;100565.50;6212251;23;20004;-66
2021/09/27 08:13:22;;;;;;;16.15;12.35;;;;;;;18.25;92.87;100559.59;6213182;23;20009;-66
2021/09/27 08:15:51;;;;;;;15.88;11.10;;;;;;;18.31;93.22;100567.03;6212881;23;20051;-65
2021/09/27 08:18:17;;;;;;;14.40;11.65;;;;;;;18.30;92.76;100568.03;6212792;23;20036;-66
2021/09/27 08:20:47;;;;;;;13.52;10.70;;;;;;;18.30;92.96;100568.91;6212483;23;20016;-66
2021/09/27 08:23:13;;;;;;;15.20;11.05;;;;;;;18.30;93.02;100577.03;6212812;23;20008;-67
2021/09/27 08:25:39;;;;;;;20.52;11.65;;;;;;;18.29;93.67;100572.66;6212230;23;20303;-65
2021/09/27 08:28:08;;;;;;;12.55;10.85;;;;;;;18.29;93.98;100567.22;6186005;23;20008;-66
2021/09/27 08:30:38;;;;;;;15.65;11.73;;;;;;;18.29;93.69;100567.22;6212768;23;20004;-65
2021/09/27 08:33:04;;;;;;;14.50;10.88;;;;;;;18.27;93.33;100563.81;6212593;23;20313;-66
2021/09/27 08:35:31;;;;;;;12.75;10.77;;;;;;;18.26;93.08;100564.84;6212745;23;20146;-67
2021/09/27 08:37:58;;;;;;;15.90;11.52;;;;;;;18.18;92.90;100540.44;6212567;23;20008;-65
2021/09/27 08:40:55;;;;;;;12.25;10.98;;;;;;;18.25;93.33;100559.59;6212126;23;20012;-66
2021/09/27 08:43:35;;;;;;;14.88;11.40;;;;;;;18.26;93.43;100567.56;6211493;23;20087;-66
2021/09/27 08:46:42;;;;;;;16.35;11.18;;;;;;;18.13;93.96;100545.56;6212610;23;20058;-66
2021/09/27 08:49:23;;;;;;;14.88;11.00;;;;;;;18.18;95.80;100551.31;6120243;23;20064;-66
2021/09/27 08:51:49;;;;;;;15.65;11.88;;;;;;;18.11;96.10;100544.91;6095920;23;20014;-66
2021/09/27 08:54:20;;;;;;;17.63;12.18;;;;;;;18.12;97.17;100537.59;6171982;23;20030;-67
2021/09/27 08:57:10;;;;;;;17.40;11.93;;;;;;;18.12;98.41;100537.59;6212215;23;20004;-67
2021/09/27 08:59:59;;;;;;;15.35;12.88;;;;;;;18.04;98.49;100543.91;6212052;23;20005;-68
2021/09/27 09:02:58;;;;;;;17.38;13.73;;;;;;;18.03;98.98;100545.78;6185467;23;20004;-67
2021/09/27 09:05:45;;;;;;;17.73;14.73;;;;;;;18.00;99.99;100535.28;6212872;23;20314;-66
2021/09/27 09:08:19;;;;;;;21.23;16.80;;;;;;;17.97;99.86;100529.38;6212620;23;20012;-67
2021/09/27 09:10:46;;;;;;;19.60;16.95;;;;;;;17.92;99.95;100521.75;6185829;23;20392;-68
2021/09/27 09:13:20;;;;;;;19.85;16.50;;;;;;;17.83;99.99;100502.94;6212795;23;20039;-68
2021/09/27 09:15:49;;;;;;;;;;;;;;;17.87;100.00;100517.88;6213291;23;20340;-67
2021/09/27 09:18:20;;;;;;;21.92;17.35;;;;;;;17.86;100.00;100513.44;6212697;23;19966;-67
2021/09/27 09:20:51;;;;;;;19.15;14.68;;;;;;;17.86;100.00;100517.03;6212654;23;20119;-67
2021/09/27 09:23:24;;;;;;;18.13;14.45;;;;;;;17.82;100.00;100512.97;6212615;23;20008;-66
2021/09/27 09:25:49;;;;;;;18.75;13.50;;;;;;;17.82;100.00;100517.56;6212275;23;20432;-66
2021/09/27 09:28:16;;;;;;;17.33;12.98;;;;;;;17.82;100.00;100514.84;6212731;23;20050;-66
2021/09/27 09:31:09;;;;;;;16.05;13.00;;;;;;;17.76;100.00;100505.53;6212709;23;20012;-67
2021/09/27 09:33:34;;;;;;;18.33;13.85;;;;;;;17.79;100.00;100510.63;6186008;23;20056;-67
2021/09/27 09:36:00;;;;;;;16.90;13.93;;;;;;;17.81;100.00;100510.44;6212562;23;20012;-67
2021/09/27 09:38:25;;;;;;;15.68;13.70;;;;;;;17.77;100.00;100504.50;6185997;23;20445;-67
2021/09/27 09:40:55;;;;;;;18.00;13.88;;;;;;;17.83;100.00;100519.22;6212314;23;20012;-67
2021/09/27 09:43:46;;;;;;;16.55;13.32;;;;;;;17.85;100.00;100514.50;6212514;23;20378;-67
2021/09/27 09:46:32;;;;;;;15.73;13.55;;;;;;;17.88;100.00;100508.72;6185695;23;20008;-66
2021/09/27 09:49:03;;;;;;;19.40;13.95;;;;;;;17.93;100.00;100511.75;6211932;23;20012;-66
2021/09/27 09:51:37;;;;;;;17.08;14.07;;;;;;;17.91;100.00;100503.78;6212710;23;20438;-67
2021/09/27 09:54:24;;;;;;;17.33;13.73;;;;;;;18.02;100.00;100497.94;6212388;23;20067;-67
2021/09/27 09:56:58;;;;;;;19.00;14.70;;;;;;;18.18;100.00;100498.91;6213729;23;20005;-66
2021/09/27 09:59:40;;;;;;;18.33;14.40;;;;;;;18.35;100.00;100495.91;6214389;23;20437;-66
2021/09/27 10:02:17;;;;;;;19.65;13.85;;;;;;;18.56;100.00;100498.81;6213969;23;20051;-66
2021/09/27 10:04:49;;;;;;;19.08;14.07;;;;;;;18.75;100.00;100492.91;6213573;23;20425;-66
2021/09/27 10:07:25;;;;;;;18.00;14.40;;;;;;;18.96;98.87;100490.31;6186902;23;20499;-66
2021/09/27 10:09:58;;;;;;;17.38;15.15;;;;;;;19.11;95.86;100485.75;6213548;23;20004;-66
2021/09/27 10:12:48;;;;;;;22.10;14.55;;;;;;;19.35;94.43;100485.53;6213354;23;20046;-66
2021/09/27 10:15:34;;;;;;;17.92;13.57;;;;;;;19.57;92.82;100479.16;6213262;23;20004;-66
2021/09/27 10:18:26;;;;;;;17.65;13.43;;;;;;;19.74;91.18;100480.63;6187985;23;20032;-66
2021/09/27 10:21:23;;;;;;;20.27;13.00;;;;;;;19.92;89.78;100477.50;6214197;23;20094;-66
2021/09/27 10:23:52;;;;;;;15.60;12.75;;;;;;;20.07;89.33;100475.59;6214155;23;20000;-66
2021/09/27 10:26:36;;;;;;;14.27;11.70;;;;;;;20.23;88.92;100480.84;6187539;23;20022;-66
2021/09/27 10:29:13;;;;;;;14.65;11.98;;;;;;;20.37;86.64;100470.94;6213991;23;19993;-65
2021/09/27 10:31:41;;;;;;;15.68;12.07;;;;;;;20.47;85.47;100479.66;6213886;23;20004;-66
2021/09/27 10:34:15;;;;;;;14.32;11.57;;;;;;;20.52;84.93;100469.00;6213903;23;20004;-66
2021/09/27 10:36:48;;;;;;;16.42;11.23;;;;;;;20.63;84.36;100473.94;6187472;23;20291;-66
2021/09/27 10:39:17;;;;;;;12.70;10.55;;;;;;;20.72;84.24;100473.59;6214066;23;20072;-65
2021/09/27 10:41:57;;;;;;;11.90;10.40;;;;;;;20.84;82.68;100471.19;6213836;23;20008;-65
2021/09/27 10:44:52;;;;;;;13.70;10.93;;;;;;;20.87;81.64;100468.06;6187354;23;20437;-66
2021/09/27 10:47:34;;;;;;;12.35;10.40;;;;;;;20.86;80.99;100459.03;6214065;23;20377;-66
2021/09/27 10:50:10;;;;;;;16.65;10.20;;;;;;;20.92;81.20;100452.78;6214127;23;20401;-66
2021/09/27 10:52:59;;;;;;;15.80;10.48;;;;;;;20.95;81.56;100449.69;6213860;23;20012;-66
2021/09/27 10:55:59;;;;;;;16.80;10.50;;;;;;;21.00;80.26;100454.56;6213731;23;20000;-66
2021/09/27 10:58:35;;;;;;;12.45;9.60;;;;;;;21.02;80.04;100456.03;6187254;23;20008;-65
2021/09/27 11:01:01;;;;;;;18.52;9.73;;;;;;;21.10;79.35;100442.25;6213852;23;20012;-65
2021/09/27 11:03:53;;;;;;;14.27;9.73;;;;;;;21.13;79.20;100449.19;6213814;23;20001;-65
2021/09/27 11:06:43;;;;;;;12.95;9.65;;;;;;;21.14;79.19;100448.16;6187240;23;20001;-67
2021/09/27 11:09:17;;;;;;;11.75;10.35;;;;;;;21.15;78.61;100445.22;6213779;23;20050;-67
2021/09/27 11:11:42;;;;;;;15.55;9.80;;;;;;;21.20;79.49;100441.91;6186998;23;20020;-66
2021/09/27 11:14:22;;;;;;;14.73;9.43;;;;;;;21.23;78.93;100439.63;6213737;23;20009;-66
2021/09/27 11:17:00;;;;;;;11.18;9.15;;;;;;;21.27;78.35;100434.59;6213572;23;20345;-67
2021/09/27 11:19:33;;;;;;;10.88;9.05;;;;;;;21.37;76.90;100440.53;6213122;23;20087;-68
2021/09/27 11:22:14;;;;;;;11.45;9.32;;;;;;;21.37;76.13;100432.34;6213710;23;20027;-66
2021/09/27 11:24:42;;;;;;;12.30;9.65;;;;;;;21.39;76.03;100439.31;6213571;23;20071;-66
2021/09/27 11:27:14;;;;;;;11.20;9.48;;;;;;;21.44;75.69;100422.34;6213550;23;20013;-66
2021/09/27 11:29:52;;;;;;;12.45;8.88;;;;;;;21.47;76.13;100424.66;6213451;23;19996;-66
2021/09/27 11:32:30;;;;;;;14.13;9.15;;;;;;;21.55;76.37;100432.66;6213671;23;20004;-67
2021/09/27 11:35:21;;;;;;;10.80;8.70;;;;;;;21.63;76.99;100424.28;6213492;23;20410;-67
2021/09/27 11:37:47;;;;;;;11.68;8.32;;;;;;;21.68;75.49;100421.81;6156578;23;20028;-67
2021/09/27 11:40:34;;;;;;;13.95;8.25;;;;;;;21.69;72.03;100427.06;6213490;23;20000;-67
2021/09/27 11:43:24;;;;;;;9.05;7.88;;;;;;;21.70;71.31;100417.81;6213308;23;20075;-67
2021/09/27 11:46:34;;;;;;;9.45;8.18;;;;;;;21.67;73.50;100422.88;6213335;23;20001;-69
2021/09/27 11:49:29;;;;;;;10.73;7.75;;;;;;;21.66;73.40;100410.22;6166624;23;20074;-67
2021/09/27 11:52:15;;;;;;;12.30;7.93;;;;;;;21.61;73.70;100413.56;6186808;23;20018;-66
2021/09/27 11:54:55;;;;;;;9.85;8.52;;;;;;;21.61;74.02;100408.13;6213531;23;20493;-67
2021/09/27 11:57:46;;;;;;;9.50;7.90;;;;;;;21.64;74.26;100413.16;6213005;23;20393;-68
2021/09/27 12:00:25;;;;;;;10.85;7.32;;;;;;;21.64;73.39;100404.16;6213054;23;20008;-66
2021/09/27 12:03:12;;;;;;;12.52;7.70;;;;;;;21.62;73.47;100403.50;6213352;23;20711;-68
2021/09/27 12:05:52;;;;;;;11.55;7.80;;;;;;;21.66;73.91;100408.34;6213142;23;20027;-68
2021/09/27 12:08:28;;;;;;;12.23;8.23;;;;;;;21.68;74.18;100403.56;6186442;23;20008;-67
2021/09/27 12:10:59;;;;;;;10.60;8.23;;;;;;;21.72;74.15;100393.03;6213284;23;20035;-67
2021/09/27 12:13:47;;;;;;;11.65;8.48;;;;;;;21.74;74.55;100400.00;6186259;23;20080;-68
2021/09/27 12:16:25;;;;;;;8.38;7.55;;;;;;;21.76;74.01;100391.63;6191502;23;20099;-68
2021/09/27 12:19:22;;;;;;;9.80;8.18;;;;;;;21.75;74.32;100387.22;6185810;23;20035;-68
2021/09/27 12:21:52;;;;;;;8.27;7.35;;;;;;;21.83;74.68;100381.56;6170892;23;20027;-69
2021/09/27 12:24:24;;;;;;;11.50;8.05;;;;;;;21.91;74.20;100382.22;6213274;23;19996;-66
2021/09/27 12:26:52;;;;;;;12.57;8.15;;;;;;;21.93;74.10;100374.66;6212897;23;20005;-68